createdAt,value
2023-04-13T00:01:28.891Z,9.61
2023-04-13T00:04:30.903Z,9.61
2023-04-13T00:07:46.901Z,9.63
2023-04-13T00:10:49.366Z,9.63
2023-04-13T00:14:03.883Z,9.63
2023-04-13T00:17:05.899Z,9.64
2023-04-13T00:20:22.880Z,9.63
2023-04-13T00:23:30.887Z,9.63
2023-04-13T00:26:39.551Z,9.62
2023-04-13T00:29:47.880Z,9.61
2023-04-13T00:32:56.596Z,9.60
2023-04-13T00:36:12.878Z,9.61
2023-04-13T00:39:20.915Z,9.62
2023-04-13T00:42:29.614Z,9.63
2023-04-13T00:45:44.893Z,9.64
2023-04-13T00:49:07.890Z,9.66
2023-04-13T00:52:17.023Z,9.67
2023-04-13T00:55:26.294Z,9.67
2023-04-13T00:58:35.241Z,9.69
2023-04-13T01:01:50.043Z,9.66
2023-04-13T01:04:55.670Z,9.66
2023-04-13T01:08:31.878Z,9.64
2023-04-13T01:11:49.030Z,9.69
2023-04-13T01:15:11.882Z,9.66
2023-04-13T01:18:15.409Z,9.60
2023-04-13T01:21:32.891Z,9.59
2023-04-13T01:24:57.932Z,9.71
2023-04-13T01:28:21.902Z,9.73
2023-04-13T01:31:24.296Z,9.70
2023-04-13T01:34:38.884Z,9.73
2023-04-13T01:37:50.904Z,9.71
2023-04-13T01:40:59.667Z,9.77
2023-04-13T01:44:14.925Z,9.73
2023-04-13T01:47:30.870Z,9.72
2023-04-13T01:50:52.921Z,9.62
2023-04-13T01:54:11.838Z,9.74
2023-04-13T01:57:21.892Z,9.73
2023-04-13T02:00:30.970Z,9.75
2023-04-13T02:03:39.954Z,9.75
2023-04-13T02:06:54.872Z,9.75
2023-04-13T02:10:09.896Z,9.69
2023-04-13T02:13:12.012Z,9.72
2023-04-13T02:16:26.901Z,9.69
2023-04-13T02:19:35.872Z,9.68
2023-04-13T02:22:44.790Z,9.67
2023-04-13T02:25:59.904Z,9.67
2023-04-13T02:29:07.893Z,9.66
2023-04-13T02:32:16.670Z,9.69
2023-04-13T02:35:24.903Z,9.59
2023-04-13T02:38:33.525Z,9.71
2023-04-13T02:41:47.933Z,9.69
2023-04-13T02:44:56.877Z,9.68
2023-04-13T02:48:12.158Z,9.66
2023-04-13T02:51:26.877Z,9.65
2023-04-13T02:54:28.750Z,9.65
2023-04-13T02:57:43.868Z,9.66
2023-04-13T03:00:46.055Z,9.71
2023-04-13T03:04:01.092Z,9.72
2023-04-13T03:07:09.924Z,9.73
2023-04-13T03:10:18.541Z,9.74
2023-04-13T03:13:26.916Z,9.75
2023-04-13T03:16:35.531Z,9.78
2023-04-13T03:19:49.913Z,9.80
2023-04-13T03:22:58.912Z,9.79
2023-04-13T03:26:07.518Z,9.77
2023-04-13T03:29:21.923Z,9.74
2023-04-13T03:32:30.895Z,9.70
2023-04-13T03:35:45.902Z,9.68
2023-04-13T03:38:54.878Z,9.70
2023-04-13T03:42:10.913Z,9.72
2023-04-13T03:45:19.574Z,9.70
2023-04-13T03:48:34.892Z,9.71
2023-04-13T03:51:43.558Z,9.69
2023-04-13T03:54:58.932Z,9.70
2023-04-13T03:58:06.880Z,9.69
2023-04-13T04:01:15.733Z,9.67
2023-04-13T04:04:23.982Z,9.66
2023-04-13T04:07:32.440Z,9.66
2023-04-13T04:10:46.898Z,9.62
2023-04-13T04:14:02.181Z,9.69
2023-04-13T04:17:10.910Z,9.73
2023-04-13T04:20:25.909Z,9.79
2023-04-13T04:23:34.532Z,9.83
2023-04-13T04:26:42.923Z,9.82
2023-04-13T04:30:00.931Z,9.84
2023-04-13T04:33:12.908Z,9.85
2023-04-13T04:36:21.481Z,9.87
2023-04-13T04:39:35.904Z,9.88
2023-04-13T04:42:38.132Z,9.90
2023-04-13T04:45:52.979Z,9.94
2023-04-13T04:49:08.884Z,9.97
2023-04-13T04:52:17.565Z,10.01
2023-04-13T04:55:32.898Z,10.06
2023-04-13T04:58:34.824Z,10.06
2023-04-13T05:01:50.015Z,10.09
2023-04-13T05:05:04.957Z,10.10
2023-04-13T05:08:13.898Z,10.09
2023-04-13T05:11:28.906Z,10.08
2023-04-13T05:14:30.864Z,10.14
2023-04-13T05:17:45.934Z,10.21
2023-04-13T05:20:54.740Z,10.25
2023-04-13T05:24:03.907Z,10.23
2023-04-13T05:27:25.894Z,10.27
2023-04-13T05:30:34.932Z,10.25
2023-04-13T05:33:49.889Z,10.28
2023-04-13T05:36:51.909Z,10.34
2023-04-13T05:40:06.938Z,10.35
2023-04-13T05:43:15.917Z,10.65
2023-04-13T05:46:24.780Z,10.83
2023-04-13T05:49:46.972Z,11.02
2023-04-13T05:52:55.923Z,11.24
2023-04-13T05:56:05.087Z,11.37
2023-04-13T05:59:19.922Z,11.40
2023-04-13T06:02:22.861Z,11.38
2023-04-13T06:05:38.002Z,11.40
2023-04-13T06:08:46.900Z,11.40
2023-04-13T06:12:04.339Z,11.37
2023-04-13T06:15:07.405Z,11.33
2023-04-13T06:18:21.942Z,11.33
2023-04-13T06:21:36.999Z,11.27
2023-04-13T06:24:49.328Z,11.31
2023-04-13T06:27:57.978Z,11.27
2023-04-13T06:31:07.231Z,11.28
2023-04-13T06:34:17.405Z,11.39
2023-04-13T06:37:31.919Z,11.39
2023-04-13T06:40:43.373Z,11.71
2023-04-13T06:43:52.921Z,12.03
2023-04-13T06:47:14.883Z,12.36
2023-04-13T06:50:30.898Z,12.58
2023-04-13T06:53:45.954Z,12.72
2023-04-13T06:57:00.985Z,12.60
2023-04-13T07:00:21.863Z,12.75
2023-04-13T07:03:44.233Z,12.62
2023-04-13T07:06:59.916Z,12.58
2023-04-13T07:10:15.906Z,12.66
2023-04-13T07:13:31.915Z,12.59
2023-04-13T07:16:47.961Z,12.63
2023-04-13T07:20:02.920Z,12.62
2023-04-13T07:23:04.917Z,12.81
2023-04-13T07:26:20.907Z,13.18
2023-04-13T07:29:23.024Z,13.29
2023-04-13T07:32:37.939Z,13.27
2023-04-13T07:35:46.943Z,13.45
2023-04-13T07:38:55.537Z,13.37
2023-04-13T07:42:03.913Z,13.53
2023-04-13T07:45:19.914Z,13.80
2023-04-13T07:48:27.924Z,13.87
2023-04-13T07:51:36.588Z,13.97
2023-04-13T07:54:45.257Z,13.85
2023-04-13T07:57:59.944Z,14.11
2023-04-13T08:01:08.748Z,14.17
2023-04-13T08:04:17.257Z,14.71
2023-04-13T08:07:32.916Z,15.31
2023-04-13T08:10:48.911Z,16.07
2023-04-13T08:21:52.920Z,15.84
2023-04-13T08:24:54.802Z,15.84
2023-04-13T08:28:09.916Z,16.11
2023-04-13T08:31:12.269Z,16.11
2023-04-13T08:34:37.102Z,16.38
2023-04-13T08:37:45.951Z,15.98
2023-04-13T08:40:55.245Z,15.67
2023-04-13T08:44:10.920Z,15.73
2023-04-13T08:47:25.936Z,15.46
2023-04-13T08:50:40.905Z,15.50
2023-04-13T08:53:48.929Z,15.53
2023-04-13T08:56:58.277Z,15.12
2023-04-13T09:00:06.922Z,15.17
2023-04-13T09:03:23.556Z,15.14
2023-04-13T09:06:40.938Z,15.17
2023-04-13T09:09:56.930Z,15.30
2023-04-13T09:13:05.598Z,15.27
2023-04-13T09:16:20.945Z,15.16
2023-04-13T09:19:36.923Z,15.27
2023-04-13T09:22:45.603Z,15.36
2023-04-13T09:26:19.942Z,15.83
2023-04-13T09:29:37.935Z,16.68
2023-04-13T09:32:46.579Z,17.38
2023-04-13T09:35:54.956Z,17.66
2023-04-13T09:39:04.068Z,17.19
2023-04-13T09:42:18.984Z,17.51
2023-04-13T09:45:38.633Z,18.05
2023-04-13T09:49:19.189Z,18.72
2023-04-13T09:52:28.160Z,18.69
2023-04-13T09:55:46.004Z,18.47
2023-04-13T09:58:54.811Z,17.92
2023-04-13T10:02:03.967Z,17.87
2023-04-13T10:05:19.086Z,17.51
2023-04-13T10:08:37.395Z,17.73
2023-04-13T10:11:56.983Z,18.29
2023-04-13T10:15:11.949Z,18.35
2023-04-13T10:18:45.048Z,18.26
2023-04-13T10:21:50.302Z,18.08
2023-04-13T10:25:04.953Z,17.79
2023-04-13T10:28:13.574Z,17.52
2023-04-13T10:31:27.974Z,17.50
2023-04-13T10:34:42.950Z,17.42
2023-04-13T10:37:57.318Z,17.46
2023-04-13T10:41:12.966Z,17.35
2023-04-13T10:44:28.942Z,17.18
2023-04-13T10:47:44.032Z,17.26
2023-04-13T10:51:05.959Z,17.34
2023-04-13T10:54:09.144Z,17.16
2023-04-13T10:57:23.961Z,17.25
2023-04-13T11:00:45.428Z,17.29
2023-04-13T11:04:03.823Z,17.30
2023-04-13T11:07:14.532Z,17.33
2023-04-13T11:10:33.938Z,17.40
2023-04-13T11:13:50.924Z,17.33
2023-04-13T11:16:59.527Z,17.37
2023-04-13T11:20:14.957Z,17.38
2023-04-13T11:23:35.934Z,17.58
2023-04-13T11:26:38.481Z,17.70
2023-04-13T11:30:07.970Z,17.86
2023-04-13T11:33:24.498Z,18.11
2023-04-13T11:40:31.947Z,18.86
2023-04-13T11:43:48.069Z,18.83
2023-04-13T11:46:56.579Z,18.80
2023-04-13T11:50:14.793Z,18.70
2023-04-13T11:53:23.799Z,18.80
2023-04-13T11:56:38.972Z,18.79
2023-04-13T11:59:41.180Z,18.79
2023-04-13T12:03:02.292Z,18.66
2023-04-13T12:06:12.630Z,18.35
2023-04-13T12:09:54.735Z,18.49
2023-04-13T12:13:17.490Z,18.51
2023-04-13T12:17:01.467Z,18.54
2023-04-13T12:20:10.026Z,18.42
2023-04-13T12:23:32.003Z,18.28
2023-04-13T12:30:02.927Z,17.98
2023-04-13T12:33:12.973Z,17.94
2023-04-13T12:36:28.034Z,18.07
2023-04-13T12:39:44.190Z,18.11
2023-04-13T12:42:54.029Z,17.99
2023-04-13T12:46:08.949Z,17.99
2023-04-13T12:49:30.951Z,18.16
2023-04-13T12:52:39.942Z,18.27
2023-04-13T12:55:48.713Z,18.31
2023-04-13T12:58:57.146Z,18.34
2023-04-13T13:02:05.742Z,18.49
2023-04-13T13:05:14.933Z,18.43
2023-04-13T13:08:32.021Z,18.73
2023-04-13T13:11:35.771Z,18.78
2023-04-13T13:14:50.944Z,18.75
2023-04-13T13:17:52.908Z,18.71
2023-04-13T13:21:13.169Z,18.44
2023-04-13T13:24:28.970Z,18.43
2023-04-13T13:28:05.525Z,18.27
2023-04-13T13:31:05.969Z,18.06
2023-04-13T13:34:21.016Z,18.28
2023-04-13T13:37:29.558Z,18.26
2023-04-13T13:40:44.006Z,18.14
2023-04-13T13:43:52.964Z,18.12
2023-04-13T13:47:08.389Z,18.09
2023-04-13T13:50:22.950Z,18.13
2023-04-13T13:53:31.964Z,17.97
2023-04-13T13:56:40.558Z,18.03
2023-04-13T13:59:54.977Z,18.01
2023-04-13T14:03:03.968Z,18.08
2023-04-13T14:06:13.022Z,17.90
2023-04-13T14:09:27.982Z,17.77
2023-04-13T14:12:29.962Z,17.76
2023-04-13T14:15:45.021Z,17.73
2023-04-13T14:18:53.586Z,17.78
2023-04-13T14:22:01.955Z,17.76
2023-04-13T14:25:18.001Z,17.67
2023-04-13T14:28:25.994Z,17.53
2023-04-13T14:31:34.771Z,17.48
2023-04-13T14:34:50.995Z,17.49
2023-04-13T14:37:59.019Z,17.48
2023-04-13T14:41:13.960Z,17.40
2023-04-13T14:44:15.933Z,17.36
2023-04-13T14:47:30.972Z,17.37
2023-04-13T14:50:53.090Z,17.37
2023-04-13T14:54:01.998Z,17.28
2023-04-13T14:57:10.661Z,17.25
2023-04-13T15:00:19.991Z,17.18
2023-04-13T15:03:35.133Z,17.16
2023-04-13T15:06:37.205Z,17.13
2023-04-13T15:09:52.000Z,17.15
2023-04-13T15:12:53.923Z,17.06
2023-04-13T15:16:09.037Z,17.06
2023-04-13T15:19:12.290Z,16.99
2023-04-13T15:22:26.992Z,17.10
2023-04-13T15:25:43.977Z,16.97
2023-04-13T15:28:52.891Z,16.97
2023-04-13T15:32:02.040Z,16.94
2023-04-13T15:35:16.997Z,16.90
2023-04-13T15:38:25.532Z,16.85
2023-04-13T15:41:39.983Z,16.76
2023-04-13T15:44:42.090Z,16.66
2023-04-13T15:47:57.257Z,16.53
2023-04-13T15:51:19.084Z,16.44
2023-04-13T15:54:30.662Z,16.36
2023-04-13T15:57:46.081Z,16.32
2023-04-13T16:01:01.494Z,16.35
2023-04-13T16:04:16.190Z,16.34
2023-04-13T16:07:30.971Z,16.33
2023-04-13T16:10:47.002Z,16.31
2023-04-13T16:13:50.274Z,16.25
2023-04-13T16:17:05.001Z,16.16
2023-04-13T16:20:21.239Z,16.08
2023-04-13T16:23:24.239Z,15.99
2023-04-13T16:26:40.051Z,15.95
2023-04-13T16:29:48.959Z,15.85
2023-04-13T16:32:58.136Z,15.81
2023-04-13T16:36:07.203Z,15.70
2023-04-13T16:39:22.088Z,15.76
2023-04-13T16:42:33.146Z,15.65
2023-04-13T16:45:41.664Z,15.68
2023-04-13T16:48:56.108Z,15.67
2023-04-13T16:51:58.069Z,15.62
2023-04-13T16:55:14.319Z,15.61
2023-04-13T16:58:23.381Z,15.58
2023-04-13T17:01:32.000Z,15.56
2023-04-13T17:04:40.663Z,15.48
2023-04-13T17:07:56.299Z,15.48
2023-04-13T17:11:05.116Z,15.45
2023-04-13T17:14:14.004Z,15.40
2023-04-13T17:17:22.821Z,15.38
2023-04-13T17:20:38.029Z,15.28
2023-04-13T17:23:39.980Z,15.25
2023-04-13T17:26:55.458Z,15.24
2023-04-13T17:30:04.280Z,15.23
2023-04-13T17:33:19.050Z,15.16
2023-04-13T17:36:27.406Z,15.14
2023-04-13T17:39:42.029Z,15.13
2023-04-13T17:42:44.577Z,15.05
2023-04-13T17:45:59.103Z,15.08
2023-04-13T17:49:09.073Z,15.05
2023-04-13T17:52:24.040Z,15.04
2023-04-13T17:55:26.898Z,14.97
2023-04-13T17:58:42.479Z,14.99
2023-04-13T18:01:45.104Z,14.86
2023-04-13T18:05:00.047Z,14.95
2023-04-13T18:08:08.882Z,14.93
2023-04-13T18:11:25.022Z,14.93
2023-04-13T18:14:34.229Z,14.93
2023-04-13T18:17:44.369Z,14.93
2023-04-13T18:20:59.476Z,14.91
2023-04-13T18:24:02.513Z,14.90
2023-04-13T18:27:18.484Z,14.89
2023-04-13T18:30:27.460Z,14.89
2023-04-13T18:33:42.521Z,14.85
2023-04-13T18:36:57.432Z,14.81
2023-04-13T18:40:13.478Z,14.77
2023-04-13T18:43:28.007Z,14.75
2023-04-13T18:46:43.788Z,14.64
2023-04-13T18:50:00.082Z,14.49
2023-04-13T18:53:09.520Z,14.35
2023-04-13T18:56:26.786Z,14.24
2023-04-13T18:59:36.524Z,14.15
2023-04-13T19:02:54.212Z,14.08
2023-04-13T19:06:03.410Z,13.87
2023-04-13T19:09:12.539Z,13.77
2023-04-13T19:12:21.665Z,13.57
2023-04-13T19:15:38.371Z,13.58
2023-04-13T19:18:47.014Z,13.47
2023-04-13T19:22:03.377Z,13.37
2023-04-13T19:25:18.482Z,13.37
2023-04-13T19:28:27.514Z,13.37
2023-04-13T19:31:36.060Z,13.40
2023-04-13T19:34:45.290Z,13.40
2023-04-13T19:38:00.513Z,13.42
2023-04-13T19:41:12.179Z,13.26
2023-04-13T19:44:22.475Z,13.32
2023-04-13T19:47:37.517Z,13.33
2023-04-13T19:50:53.518Z,13.31
2023-04-13T19:54:02.610Z,13.25
2023-04-13T19:57:19.505Z,13.20
2023-04-13T20:00:36.318Z,13.14
2023-04-13T20:03:51.458Z,13.10
2023-04-13T20:07:00.485Z,13.06
2023-04-13T20:10:11.443Z,13.08
2023-04-13T20:13:27.432Z,13.06
2023-04-13T20:16:35.604Z,13.03
2023-04-13T20:19:44.474Z,12.99
2023-04-13T20:22:59.509Z,12.98
2023-04-13T20:26:08.252Z,12.99
2023-04-13T20:29:23.496Z,12.98
2023-04-13T20:32:39.243Z,12.95
2023-04-13T20:35:48.159Z,12.95
2023-04-13T20:39:04.052Z,12.92
2023-04-13T20:42:12.613Z,12.87
2023-04-13T20:45:27.064Z,12.86
2023-04-13T20:48:49.219Z,12.90
2023-04-13T20:52:05.164Z,12.96
2023-04-13T20:55:20.069Z,12.90
2023-04-13T20:58:28.716Z,12.91
2023-04-13T21:01:43.164Z,12.87
2023-04-13T21:04:52.043Z,12.83
2023-04-13T21:08:00.574Z,12.70
2023-04-13T21:11:09.030Z,12.76
2023-04-13T21:14:24.038Z,12.69
2023-04-13T21:17:25.981Z,12.67
2023-04-13T21:20:41.063Z,12.61
2023-04-13T21:23:46.830Z,12.62
2023-04-13T21:27:02.026Z,12.62
2023-04-13T21:30:11.010Z,12.57
2023-04-13T21:33:26.004Z,12.48
2023-04-13T21:39:59.054Z,12.32
2023-04-13T21:43:07.792Z,12.30
2023-04-13T21:46:23.083Z,12.27
2023-04-13T21:49:31.273Z,12.26
2023-04-13T21:52:45.994Z,12.24
2023-04-13T21:56:01.037Z,12.25
2023-04-13T21:59:03.123Z,12.25
2023-04-13T22:02:18.180Z,12.24
2023-04-13T22:05:20.145Z,12.22
2023-04-13T22:08:35.064Z,12.21
2023-04-13T22:11:50.025Z,12.20
2023-04-13T22:14:54.932Z,12.20
2023-04-13T22:18:10.054Z,12.14
2023-04-13T22:21:18.027Z,12.16
2023-04-13T22:24:33.016Z,12.15
2023-04-13T22:27:41.570Z,12.14
2023-04-13T22:30:50.012Z,12.09
2023-04-13T22:33:58.755Z,12.09
2023-04-13T22:37:08.015Z,12.06
2023-04-13T22:40:16.912Z,12.04
2023-04-13T22:43:32.048Z,12.07
2023-04-13T22:46:40.614Z,12.08
2023-04-13T22:50:02.093Z,11.98
2023-04-13T22:53:04.322Z,12.05
2023-04-13T22:56:19.075Z,12.05
2023-04-13T22:59:27.022Z,12.03
2023-04-13T23:02:36.104Z,12.05
2023-04-13T23:05:45.059Z,12.03
2023-04-13T23:09:02.271Z,12.00
2023-04-13T23:12:10.621Z,12.01
2023-04-13T23:15:20.018Z,12.03
2023-04-13T23:18:35.119Z,11.98
2023-04-13T23:21:37.002Z,12.07
2023-04-13T23:24:53.034Z,12.08
2023-04-13T23:28:01.045Z,12.05
2023-04-13T23:31:09.779Z,12.07
2023-04-13T23:34:19.031Z,12.10
2023-04-13T23:37:27.787Z,12.13
2023-04-13T23:40:36.048Z,12.10
2023-04-13T23:43:45.254Z,12.08
2023-04-13T23:46:54.027Z,12.06
2023-04-13T23:50:16.049Z,12.07
2023-04-13T23:53:25.048Z,11.97
2023-04-13T23:56:40.063Z,12.03
2023-04-13T23:59:48.624Z,11.98
